createdAt,value
2023-01-02T00:04:48.654Z,5.7
2023-01-02T00:10:29.392Z,5.3
2023-01-02T00:15:45.695Z,4.6
2023-01-02T00:21:30.621Z,4
2023-01-02T00:26:54.651Z,3.9
2023-01-02T00:32:39.575Z,4.3
2023-01-02T00:38:01.814Z,4.7
2023-01-02T00:43:47.025Z,5.5
2023-01-02T00:49:09.185Z,5.5
2023-01-02T00:54:43.650Z,5.5
2023-01-02T01:00:18.485Z,4.7
2023-01-02T01:05:58.112Z,4.1
2023-01-02T01:11:17.954Z,4
2023-01-02T01:16:42.183Z,4.2
2023-01-02T01:22:31.733Z,4.5
2023-01-02T01:27:47.885Z,4.8
2023-01-02T01:33:29.529Z,5
2023-01-02T01:38:48.820Z,4.9
2023-01-02T01:44:40.196Z,5.1
2023-01-02T01:50:09.163Z,4.2
2023-01-02T01:55:24.596Z,3.9
2023-01-02T02:00:49.236Z,4
2023-01-02T02:06:23.917Z,4
2023-01-02T02:12:00.880Z,3.9
2023-01-02T02:17:25.784Z,4.4
2023-01-02T02:23:04.493Z,3.9
2023-01-02T02:28:39.077Z,3.4
2023-01-02T02:34:12.451Z,3.3
2023-01-02T02:39:53.655Z,3.6
2023-01-02T02:45:26.195Z,3.7
2023-01-02T02:56:10.096Z,3.6
2023-01-02T03:01:50.507Z,3.8
2023-01-02T03:07:06.918Z,4.5
2023-01-02T03:13:01.286Z,4.3
2023-01-02T03:18:31.404Z,4.4
2023-01-02T03:23:58.238Z,4.1
2023-01-02T03:29:35.941Z,4.1
2023-01-02T03:34:51.964Z,4.2
2023-01-02T03:40:28.106Z,4.4
2023-01-02T03:46:06.913Z,4.9
2023-01-02T03:51:21.089Z,3.5
2023-01-02T03:57:07.528Z,3.7
2023-01-02T04:02:33.349Z,4.2
2023-01-02T04:08:15.711Z,4
2023-01-02T04:13:30.732Z,3.9
2023-01-02T04:19:10.594Z,4.4
2023-01-02T04:24:43.002Z,4.5
2023-01-02T04:30:28.628Z,4
2023-01-02T04:35:58.496Z,4
2023-01-02T04:41:13.284Z,4
2023-01-02T04:46:36.346Z,4.5
2023-01-02T04:52:29.652Z,4.5
2023-01-02T04:57:47.688Z,4
2023-01-02T05:03:10.806Z,3.5
2023-01-02T05:08:49.019Z,3.5
2023-01-02T05:14:19.467Z,3.4
2023-01-02T05:19:52.969Z,4.1
2023-01-02T05:25:24.983Z,4
2023-01-02T05:31:14.965Z,3.9
2023-01-02T05:36:30.560Z,3.8
2023-01-02T05:42:09.908Z,4
2023-01-02T05:47:32.251Z,3.8
2023-01-02T05:52:58.219Z,3.9
2023-01-02T05:58:49.570Z,4
2023-01-02T06:03:58.339Z,3.8
2023-01-02T06:09:35.824Z,3.7
2023-01-02T06:15:25.275Z,3.5
2023-01-02T06:20:38.533Z,3.6
2023-01-02T06:26:02.731Z,3.7
2023-01-02T06:31:53.359Z,4.1
2023-01-02T06:37:22.452Z,4.1
2023-01-02T06:43:01.931Z,4
2023-01-02T06:48:22.863Z,4.1
2023-01-02T06:54:05.719Z,4.1
2023-01-02T06:59:28.389Z,4.5
2023-01-02T07:05:10.348Z,4.4
2023-01-02T07:10:46.680Z,4.4
2023-01-02T07:15:55.633Z,4.1
2023-01-02T07:21:41.957Z,3.5
2023-01-02T07:27:15.626Z,3.3
2023-01-02T07:32:34.201Z,3.8
2023-01-02T07:37:59.260Z,4
2023-01-02T07:43:28.414Z,4.1
2023-01-02T07:49:15.229Z,3.8
2023-01-02T07:54:28.337Z,3.6
2023-01-02T08:00:08.318Z,3.6
2023-01-02T08:05:44.787Z,3.9
2023-01-02T08:11:27.705Z,4.5
2023-01-02T08:16:58.790Z,4.6
2023-01-02T08:22:26.029Z,3.8
2023-01-02T08:27:53.628Z,3.6
2023-01-02T08:33:12.237Z,3.6
2023-01-02T08:39:09.074Z,3.6
2023-01-02T08:44:18.400Z,3.9
2023-01-02T08:50:10.252Z,4
2023-01-02T08:55:28.465Z,4
2023-01-02T09:01:13.838Z,4
2023-01-02T09:06:22.627Z,4.2
2023-01-02T09:11:53.791Z,4.4
2023-01-02T09:17:43.239Z,4.6
2023-01-02T09:22:54.324Z,4.9
2023-01-02T09:28:36.163Z,5
2023-01-02T09:34:15.202Z,5.2
2023-01-02T09:39:38.377Z,5.4
2023-01-02T09:45:08.448Z,5.6
2023-01-02T09:50:46.856Z,4.9
2023-01-02T09:56:15.330Z,4.8
2023-01-02T10:01:42.057Z,5.2
2023-01-02T10:07:32.092Z,6.4
2023-01-02T10:12:43.775Z,7
2023-01-02T10:18:30.394Z,7.3
2023-01-02T10:23:56.334Z,7.5
2023-01-02T10:29:33.955Z,7.9
2023-01-02T10:35:00.636Z,7.3
2023-01-02T10:40:27.633Z,7.8
2023-01-02T10:45:57.434Z,8
2023-01-02T10:51:46.538Z,8.3
2023-01-02T10:57:16.775Z,8.6
2023-01-02T11:02:51.068Z,9.1
2023-01-02T11:08:04.849Z,9.5
2023-01-02T11:13:56.441Z,9.9
2023-01-02T11:19:19.617Z,10.2
2023-01-02T11:24:53.003Z,10.4
2023-01-02T11:30:23.913Z,10.3
2023-01-02T11:36:10.803Z,10.2
2023-01-02T11:41:44.141Z,10.3
2023-01-02T11:47:12.696Z,10.4
2023-01-02T11:52:34.676Z,10.4
2023-01-02T11:58:02.932Z,10.7
2023-01-02T12:03:39.304Z,11.1
2023-01-02T12:09:04.710Z,11.5
2023-01-02T12:14:41.663Z,12
2023-01-02T12:20:15.167Z,12.3
2023-01-02T12:25:37.195Z,12.7
2023-01-02T12:31:19.916Z,13.2
2023-01-02T12:36:51.092Z,13.2
2023-01-02T12:42:22.772Z,13.3
2023-01-02T12:48:02.093Z,13.1
2023-01-02T12:53:20.295Z,13.2
2023-01-02T12:59:09.296Z,13.1
2023-01-02T13:04:32.215Z,13.1
2023-01-02T13:10:15.193Z,13
2023-01-02T13:15:46.844Z,12.6
2023-01-02T13:21:06.731Z,12.4
2023-01-02T13:26:33.636Z,12.3
2023-01-02T13:32:24.409Z,12.3
2023-01-02T13:43:15.717Z,12.3
2023-01-02T13:49:07.306Z,12.2
2023-01-02T13:54:26.860Z,11.9
2023-01-02T14:00:15.405Z,11.9
2023-01-02T14:05:32.218Z,11.7
2023-01-02T14:11:05.356Z,12.5
2023-01-02T14:16:29.254Z,11.7
2023-01-02T14:22:09.042Z,11.5
2023-01-02T14:27:44.941Z,11.8
2023-01-02T14:33:23.257Z,11.8
2023-01-02T14:38:49.925Z,12.1
2023-01-02T14:55:27.635Z,11.9
2023-01-02T15:01:04.592Z,11.9
2023-01-02T15:23:20.699Z,12.1
2023-01-02T16:07:48.200Z,11.1
2023-01-02T16:13:24.666Z,11
2023-01-02T17:47:59.835Z,8.9
2023-01-02T17:58:59.436Z,8.6
2023-01-02T18:04:09.582Z,8.8
2023-01-02T18:10:07.278Z,9
2023-01-02T18:20:53.275Z,8.6
2023-01-02T18:32:07.725Z,8.7
2023-01-02T18:48:48.918Z,9
2023-01-02T18:54:09.380Z,9
2023-01-02T18:59:54.812Z,9
2023-01-02T19:10:57.061Z,8.9
2023-01-02T22:25:05.172Z,8
2023-01-02T22:30:46.706Z,8.1
2023-01-02T22:36:02.015Z,7.9
